Time;durP1;ratioP1;P1;durP2;ratioP2;P2;SDS_P1;SDS_P2;PMS_P1;PMS_P2;Temp;Humidity;BMP_temperature;BMP_pressure;BME280_temperature;BME280_humidity;BME280_pressure;Samples;Min_cycle;Max_cycle;Signal;HPM_P1;HPM_P2
2022/02/20 00:00:24;;;;;;;18.33;5.80;;;;;;;5.77;51.01;100293.88;4481950;31;33169;-83
2022/02/20 00:02:52;;;;;;;18.60;6.05;;;;;;;6.10;49.78;100289.84;4483570;31;33761;-83
2022/02/20 00:05:20;;;;;;;23.98;6.72;;;;;;;5.88;49.91;100299.78;4482053;31;33721;-83
2022/02/20 00:07:47;;;;;;;19.55;6.82;;;;;;;5.61;51.46;100292.41;4485278;31;32693;-83
2022/02/20 00:10:15;;;;;;;17.50;6.05;;;;;;;5.40;51.80;100298.81;4492519;31;34171;-84
2022/02/20 00:12:44;;;;;;;19.50;6.35;;;;;;;5.33;52.27;100298.03;4479989;31;33212;-83
2022/02/20 00:15:12;;;;;;;21.60;7.60;;;;;;;5.44;52.02;100297.87;4492056;31;34742;-83
2022/02/20 00:17:40;;;;;;;22.65;7.25;;;;;;;5.48;51.58;100294.34;4466057;31;32732;-83
2022/02/20 00:20:09;;;;;;;19.08;7.55;;;;;;;5.22;52.44;100296.44;4472317;31;33494;-83
2022/02/20 00:22:37;;;;;;;20.55;7.12;;;;;;;5.41;51.91;100303.16;4478796;31;33828;-83
2022/02/20 00:25:06;;;;;;;22.48;7.18;;;;;;;5.46;51.57;100308.31;4493541;31;33702;-83
2022/02/20 00:27:34;;;;;;;19.23;6.20;;;;;;;5.21;52.08;100303.44;4481881;31;34019;-83
2022/02/20 00:30:01;;;;;;;16.77;6.00;;;;;;;5.18;51.93;100300.88;4492918;31;33494;-83
2022/02/20 00:32:29;;;;;;;17.08;6.47;;;;;;;5.25;51.70;100297.28;4482109;31;32344;-84
2022/02/20 00:34:57;;;;;;;18.75;6.72;;;;;;;5.38;51.33;100304.06;4480027;31;33599;-83
2022/02/20 00:37:26;;;;;;;17.87;7.15;;;;;;;5.25;51.82;100305.13;4479856;31;33803;-83
2022/02/20 00:39:54;;;;;;;23.60;7.47;;;;;;;5.79;50.54;100289.50;4474117;31;32265;-83
2022/02/20 00:42:21;;;;;;;16.58;7.35;;;;;;;5.26;52.00;100291.16;4486143;31;32890;-83
2022/02/20 00:44:49;;;;;;;17.52;7.72;;;;;;;5.03;52.81;100295.84;4480552;31;33620;-83
2022/02/20 00:47:17;;;;;;;21.58;7.15;;;;;;;5.08;52.76;100289.69;4479571;31;33448;-82
2022/02/20 00:49:44;;;;;;;13.27;6.57;;;;;;;5.10;52.83;100287.87;4491332;31;33276;-82
2022/02/20 00:52:12;;;;;;;21.17;6.70;;;;;;;4.98;53.47;100295.88;4495147;31;33864;-82
2022/02/20 00:54:40;;;;;;;17.65;6.40;;;;;;;5.06;52.56;100293.19;4486558;31;32837;-81
2022/02/20 00:57:08;;;;;;;22.33;6.10;;;;;;;4.97;52.81;100282.84;4490705;31;34482;-81
2022/02/20 00:59:37;;;;;;;20.23;5.85;;;;;;;4.60;54.10;100280.66;4491876;31;34095;-81
2022/02/20 01:02:04;;;;;;;20.80;5.78;;;;;;;4.93;53.35;100279.38;4483224;31;33725;-82
2022/02/20 01:04:32;;;;;;;11.85;5.50;;;;;;;4.81;53.54;100280.41;4480632;31;33406;-82
2022/02/20 01:07:00;;;;;;;15.75;6.87;;;;;;;4.85;53.39;100274.28;4472199;31;33284;-82
2022/02/20 01:09:29;;;;;;;19.17;6.22;;;;;;;4.69;54.07;100275.31;4478681;31;31929;-81
2022/02/20 01:11:59;;;;;;;15.30;6.50;;;;;;;4.99;53.10;100278.47;4491197;31;33159;-81
2022/02/20 01:14:26;;;;;;;22.02;6.65;;;;;;;5.03;52.84;100280.13;4477527;31;33685;-82
2022/02/20 01:16:56;;;;;;;14.65;5.40;;;;;;;5.04;52.68;100271.41;4467008;31;33274;-82
2022/02/20 01:19:23;;;;;;;17.45;5.72;;;;;;;5.04;52.60;100274.03;4478710;31;34361;-83
2022/02/20 01:21:51;;;;;;;19.12;6.45;;;;;;;5.02;52.69;100268.78;4477195;31;34265;-83
2022/02/20 01:24:19;;;;;;;14.87;5.68;;;;;;;4.96;52.97;100270.63;4466272;31;33008;-83
2022/02/20 01:26:47;;;;;;;19.92;6.20;;;;;;;5.10;52.76;100261.72;4478168;31;34362;-82
2022/02/20 01:29:14;;;;;;;15.40;5.97;;;;;;;5.07;52.62;100268.72;4479606;31;33208;-82
2022/02/20 01:31:42;;;;;;;12.23;5.25;;;;;;;4.93;53.35;100258.44;4477379;31;34601;-82
2022/02/20 01:34:10;;;;;;;21.20;7.00;;;;;;;4.81;53.87;100267.34;4493746;31;33636;-82
2022/02/20 01:36:38;;;;;;;18.75;7.68;;;;;;;5.04;53.29;100260.94;4479273;31;32476;-82
2022/02/20 01:39:10;;;;;;;19.60;7.72;;;;;;;5.10;52.79;100258.22;4473007;31;32784;-82
2022/02/20 01:41:37;;;;;;;19.83;7.62;;;;;;;4.97;52.73;100248.81;4478238;31;34164;-82
2022/02/20 01:44:06;;;;;;;17.58;7.35;;;;;;;5.11;52.34;100236.41;4492114;31;33743;-81
2022/02/20 01:46:36;;;;;;;17.08;7.05;;;;;;;5.03;52.43;100235.62;4486169;31;33114;-82
2022/02/20 01:49:03;;;;;;;14.52;7.00;;;;;;;5.05;52.71;100231.25;4471413;31;32621;-81
2022/02/20 01:51:31;;;;;;;19.17;5.37;;;;;;;4.76;53.85;100231.66;4500348;31;32653;-82
2022/02/20 01:53:59;;;;;;;14.38;5.65;;;;;;;4.72;53.85;100238.69;4471975;31;32719;-81
2022/02/20 01:56:26;;;;;;;19.20;5.45;;;;;;;4.92;53.41;100240.16;4491039;31;34280;-83
2022/02/20 01:58:55;;;;;;;13.07;4.80;;;;;;;4.77;53.51;100236.00;4470648;31;34371;-82
2022/02/20 02:01:24;;;;;;;15.95;5.82;;;;;;;4.91;53.28;100233.19;4463188;31;33150;-82
2022/02/20 02:03:52;;;;;;;16.95;6.47;;;;;;;4.85;53.24;100226.31;4500004;31;34552;-82
2022/02/20 02:06:24;;;;;;;13.32;5.82;;;;;;;4.87;53.22;100221.91;4493255;31;34820;-82
2022/02/20 02:08:52;;;;;;;16.12;5.37;;;;;;;5.05;52.78;100212.94;4472772;31;32734;-81
2022/02/20 02:11:21;;;;;;;13.68;5.50;;;;;;;4.66;54.15;100209.13;4491674;31;33781;-82
2022/02/20 02:13:48;;;;;;;11.68;5.03;;;;;;;4.84;53.98;100207.13;4478348;31;33858;-83
2022/02/20 02:16:18;;;;;;;18.62;5.80;;;;;;;4.87;53.75;100201.84;4472340;31;33123;-83
2022/02/20 02:18:50;;;;;;;16.92;5.87;;;;;;;4.79;53.94;100198.44;4480561;31;32945;-83
2022/02/20 02:21:19;;;;;;;11.82;5.25;;;;;;;4.85;54.02;100192.28;4493847;31;33113;-83
2022/02/20 02:23:47;;;;;;;16.20;4.72;;;;;;;4.93;53.52;100182.56;4466267;31;35174;-83
2022/02/20 02:26:15;;;;;;;11.85;5.43;;;;;;;4.88;53.70;100174.78;4479483;31;33856;-83
2022/02/20 02:28:44;;;;;;;14.55;5.35;;;;;;;4.68;54.34;100174.19;4477476;31;33055;-83
2022/02/20 02:31:14;;;;;;;19.85;5.72;;;;;;;4.61;54.49;100178.66;4466281;31;34303;-83
2022/02/20 02:33:44;;;;;;;12.40;4.72;;;;;;;4.86;54.09;100168.72;4490910;31;33549;-83
2022/02/20 02:36:13;;;;;;;9.90;4.45;;;;;;;4.81;54.04;100170.53;4493837;31;34117;-82
2022/02/20 02:38:40;;;;;;;10.90;5.00;;;;;;;5.31;52.39;100160.16;4479045;31;33392;-82
2022/02/20 02:41:10;;;;;;;13.13;5.10;;;;;;;4.98;53.16;100162.41;4481282;31;33383;-82
2022/02/20 02:43:39;;;;;;;12.88;4.90;;;;;;;4.66;54.42;100164.66;4493144;31;32852;-82
2022/02/20 02:46:08;;;;;;;11.15;4.68;;;;;;;4.64;54.73;100167.28;4480500;31;32528;-82
2022/02/20 02:48:44;;;;;;;13.60;4.87;;;;;;;4.97;53.70;100165.94;4494726;31;33909;-82
2022/02/20 02:51:13;;;;;;;10.30;3.85;;;;;;;4.95;53.62;100166.84;4482068;31;34502;-83
2022/02/20 02:53:41;;;;;;;9.57;4.35;;;;;;;4.96;53.51;100168.59;4474117;31;34380;-83
2022/02/20 02:56:09;;;;;;;12.73;5.35;;;;;;;4.79;53.90;100166.19;4485813;31;32947;-82
2022/02/20 02:58:37;;;;;;;14.20;5.07;;;;;;;4.82;53.75;100171.41;4486680;31;33618;-83
2022/02/20 03:01:05;;;;;;;7.72;3.92;;;;;;;4.64;54.46;100167.28;4480545;31;34868;-83
2022/02/20 03:03:33;;;;;;;6.82;3.15;;;;;;;4.79;53.91;100161.81;4482930;31;32944;-84
2022/02/20 03:06:07;;;;;;;7.05;3.80;;;;;;;4.51;55.02;100176.16;4480360;31;33750;-84
2022/02/20 03:08:35;;;;;;;8.13;3.45;;;;;;;4.83;54.19;100173.97;4494833;31;34065;-83
2022/02/20 03:11:04;;;;;;;9.05;3.55;;;;;;;4.65;54.80;100179.47;4478502;31;33836;-83
2022/02/20 03:13:34;;;;;;;8.18;4.12;;;;;;;4.59;55.48;100174.31;4493151;31;34673;-83
2022/02/20 03:16:06;;;;;;;7.28;3.35;;;;;;;4.57;55.55;100165.66;4483462;31;34140;-81
2022/02/20 03:18:34;;;;;;;10.30;3.80;;;;;;;4.58;55.32;100172.59;4482341;31;33210;-82
2022/02/20 03:21:06;;;;;;;8.98;3.70;;;;;;;4.73;54.50;100169.78;4491452;31;33169;-82
2022/02/20 03:23:35;;;;;;;10.15;4.22;;;;;;;4.84;54.24;100165.28;4479539;31;32952;-83
2022/02/20 03:26:03;;;;;;;8.63;3.28;;;;;;;4.72;54.64;100162.81;4501252;31;33651;-84
2022/02/20 03:28:34;;;;;;;7.32;2.62;;;;;;;4.71;54.74;100173.31;4494592;31;33075;-84
2022/02/20 03:31:04;;;;;;;9.57;2.62;;;;;;;4.84;54.34;100165.28;4479946;31;34822;-82
2022/02/20 03:33:32;;;;;;;7.00;2.25;;;;;;;4.94;53.99;100159.88;4492610;31;33957;-82
2022/02/20 03:36:00;;;;;;;5.90;2.62;;;;;;;4.90;53.98;100158.22;4481871;31;33073;-82
2022/02/20 03:38:29;;;;;;;6.97;2.92;;;;;;;4.85;53.89;100153.06;4494575;31;34038;-82
2022/02/20 03:40:57;;;;;;;5.85;2.30;;;;;;;4.82;54.03;100151.31;4485958;31;32951;-82
2022/02/20 03:43:25;;;;;;;5.30;2.47;;;;;;;4.77;54.05;100162.75;4473826;31;33242;-82
2022/02/20 03:45:55;;;;;;;6.80;2.35;;;;;;;4.82;54.09;100153.09;4481234;31;34287;-82
2022/02/20 03:48:23;;;;;;;3.75;2.00;;;;;;;4.74;54.68;100155.78;4493528;31;33140;-82
2022/02/20 03:50:51;;;;;;;7.57;2.08;;;;;;;5.05;53.77;100155.34;4465064;31;33489;-82
2022/02/20 03:53:20;;;;;;;11.38;3.05;;;;;;;4.99;53.71;100163.31;4478998;31;33741;-82
2022/02/20 03:55:50;;;;;;;6.37;2.87;;;;;;;4.69;55.10;100165.47;4486957;31;32962;-82
2022/02/20 03:58:18;;;;;;;6.75;2.30;;;;;;;4.57;55.46;100166.50;4500344;31;33475;-82
2022/02/20 04:00:46;;;;;;;9.60;2.72;;;;;;;4.71;55.42;100171.56;4485258;31;33353;-82
2022/02/20 04:03:17;;;;;;;9.45;2.45;;;;;;;4.74;55.18;100176.72;4480145;31;32950;-82
2022/02/20 04:05:45;;;;;;;5.90;2.45;;;;;;;4.67;55.46;100172.47;4494132;31;34423;-82
2022/02/20 04:08:14;;;;;;;9.27;2.37;;;;;;;4.75;55.13;100172.37;4478840;31;33460;-82
2022/02/20 04:10:42;;;;;;;5.70;2.53;;;;;;;4.74;55.09;100179.34;4493302;31;33175;-82
2022/02/20 04:13:10;;;;;;;4.97;1.95;;;;;;;4.69;55.28;100175.94;4458217;31;32998;-81
2022/02/20 04:15:39;;;;;;;3.87;2.20;;;;;;;4.74;54.70;100168.88;4473319;31;34966;-83
2022/02/20 04:18:08;;;;;;;6.03;2.83;;;;;;;4.73;54.79;100171.53;4472984;31;33655;-83
2022/02/20 04:20:35;;;;;;;6.55;2.33;;;;;;;4.21;55.89;100177.44;4481926;31;34168;-83
2022/02/20 04:23:04;;;;;;;2.75;1.83;;;;;;;4.63;55.02;100179.50;4479229;31;34691;-83
2022/02/20 04:25:32;;;;;;;4.82;1.98;;;;;;;4.52;55.44;100173.56;4472750;31;32635;-83
2022/02/20 04:28:01;;;;;;;4.37;2.08;;;;;;;4.57;54.95;100176.09;4467150;31;32882;-84
2022/02/20 04:30:29;;;;;;;6.62;1.87;;;;;;;4.30;55.22;100172.09;4473169;31;32920;-84
2022/02/20 04:32:57;;;;;;;5.35;1.77;;;;;;;4.41;54.92;100162.34;4480164;31;33986;-84
2022/02/20 04:35:25;;;;;;;6.32;2.10;;;;;;;4.49;54.87;100157.03;4478505;31;33542;-82
2022/02/20 04:37:53;;;;;;;10.00;3.12;;;;;;;4.50;54.79;100153.53;4479746;31;32647;-81
2022/02/20 04:40:22;;;;;;;6.93;2.40;;;;;;;4.39;55.28;100156.28;4464011;31;33623;-81
2022/02/20 04:42:51;;;;;;;9.50;3.47;;;;;;;4.35;55.26;100154.59;4492477;31;33013;-81
2022/02/20 04:45:19;;;;;;;8.65;3.30;;;;;;;4.29;55.46;100160.78;4465400;31;33424;-82
2022/02/20 04:47:47;;;;;;;8.55;2.62;;;;;;;4.16;55.67;100161.78;4485216;31;32270;-83
2022/02/20 04:50:15;;;;;;;6.80;2.40;;;;;;;4.19;55.78;100167.00;4479196;31;34188;-82
2022/02/20 04:52:43;;;;;;;2.87;1.90;;;;;;;4.37;55.20;100169.37;4486117;31;32544;-84
2022/02/20 04:55:12;;;;;;;5.03;2.80;;;;;;;4.41;54.93;100177.19;4485283;31;34410;-83
2022/02/20 04:57:41;;;;;;;3.75;2.10;;;;;;;4.45;54.61;100176.25;4493622;31;33286;-83
2022/02/20 05:00:13;;;;;;;7.68;2.70;;;;;;;4.26;54.82;100175.63;4464936;31;32920;-83
2022/02/20 05:02:43;;;;;;;8.30;2.90;;;;;;;4.20;54.97;100187.00;4478133;31;34019;-83
2022/02/20 05:05:12;;;;;;;6.87;2.60;;;;;;;4.08;55.32;100171.47;4477739;31;33477;-83
2022/02/20 05:07:39;;;;;;;12.18;3.40;;;;;;;3.90;55.86;100171.69;4499807;31;33999;-83
2022/02/20 05:10:11;;;;;;;6.27;3.20;;;;;;;3.95;55.74;100149.84;4485100;31;33034;-83
2022/02/20 05:12:38;;;;;;;6.87;2.87;;;;;;;3.93;55.85;100150.75;4465530;31;32946;-83
2022/02/20 05:15:07;;;;;;;6.25;2.60;;;;;;;3.93;55.74;100149.00;4479255;31;33762;-83
2022/02/20 05:17:39;;;;;;;7.62;2.95;;;;;;;3.99;55.98;100153.31;4478018;31;33461;-84
2022/02/20 05:20:08;;;;;;;8.30;3.40;;;;;;;3.99;55.88;100150.69;4477846;31;32394;-84
2022/02/20 05:22:36;;;;;;;32.75;10.05;;;;;;;3.90;56.19;100156.03;4476920;31;33229;-83
2022/02/20 05:25:05;;;;;;;28.90;10.90;;;;;;;3.79;56.56;100161.34;4479658;31;33276;-84
2022/02/20 05:27:33;;;;;;;;;;;;;;;3.85;56.22;100156.06;4466441;31;32503;-84
2022/02/20 05:30:01;;;;;;;33.97;9.10;;;;;;;3.66;56.50;100158.00;4492206;31;34409;-84
2022/02/20 05:32:29;;;;;;;28.15;9.05;;;;;;;3.49;57.21;100157.28;4466105;31;33115;-84
2022/02/20 05:34:57;;;;;;;28.70;8.80;;;;;;;3.57;56.95;100158.09;4477732;31;34176;-84
2022/02/20 05:37:26;;;;;;;33.38;10.15;;;;;;;3.69;56.49;100157.94;4492942;31;33383;-84
2022/02/20 05:39:55;;;;;;;36.67;11.48;;;;;;;3.78;56.28;100157.84;4452977;31;32553;-84
2022/02/20 05:42:23;;;;;;;23.38;8.52;;;;;;;3.55;57.01;100167.66;4452905;31;33315;-84
2022/02/20 05:44:51;;;;;;;39.70;12.27;;;;;;;3.94;55.91;100162.91;4480055;31;33309;-84
2022/02/20 05:47:19;;;;;;;35.03;12.63;;;;;;;3.59;57.01;100167.62;4499470;31;34255;-84
2022/02/20 05:49:47;;;;;;;35.63;11.88;;;;;;;3.57;57.18;100156.34;4485370;31;32360;-83
2022/02/20 05:52:16;;;;;;;40.60;14.18;;;;;;;3.56;56.97;100156.34;4477394;31;33478;-83
2022/02/20 05:54:44;;;;;;;40.83;13.15;;;;;;;3.50;57.22;100151.19;4483750;31;33125;-82
2022/02/20 05:57:12;;;;;;;28.15;12.00;;;;;;;3.41;57.24;100153.88;4467402;31;33394;-81
2022/02/20 05:59:42;;;;;;;32.40;11.05;;;;;;;3.57;56.84;100143.28;4493882;31;33624;-81
2022/02/20 06:02:13;;;;;;;21.30;7.80;;;;;;;3.56;57.07;100140.66;4477991;31;33098;-81
2022/02/20 06:04:42;;;;;;;14.05;5.93;;;;;;;3.62;57.00;100131.94;4483669;31;34495;-81
2022/02/20 06:07:10;;;;;;;20.35;6.85;;;;;;;3.60;57.17;100134.53;4483721;31;32631;-81
2022/02/20 06:09:38;;;;;;;14.00;5.40;;;;;;;3.66;56.99;100129.28;4471786;31;32761;-81
2022/02/20 06:15:52;;;;;;;15.32;6.12;;;;;;;3.77;57.19;100130.00;4493973;31;33111;-83
2022/02/20 06:18:20;;;;;;;9.98;4.70;;;;;;;3.65;58.04;100131.87;4482929;31;32443;-83
2022/02/20 06:20:47;;;;;;;15.30;5.93;;;;;;;3.54;57.84;100132.00;4486706;31;32709;-82
2022/02/20 06:23:17;;;;;;;17.37;6.82;;;;;;;3.47;58.41;100140.78;4481328;31;34757;-80
2022/02/20 06:25:46;;;;;;;18.70;6.47;;;;;;;3.71;58.06;100139.69;4493421;31;33925;-80
2022/02/20 06:28:13;;;;;;;14.00;6.53;;;;;;;3.63;58.67;100131.91;4479463;31;32747;-79
2022/02/20 06:30:41;;;;;;;12.88;5.45;;;;;;;3.90;57.99;100135.13;4501524;31;33526;-80
2022/02/20 06:33:09;;;;;;;15.27;6.62;;;;;;;3.76;58.25;100117.84;4471170;31;32966;-80
2022/02/20 06:35:37;;;;;;;13.57;5.03;;;;;;;3.92;58.03;100126.38;4492425;31;33982;-80
2022/02/20 06:38:06;;;;;;;9.27;4.82;;;;;;;3.96;58.10;100135.03;4480374;31;33590;-80
2022/02/20 06:40:35;;;;;;;10.25;4.43;;;;;;;3.89;58.74;100141.19;4487281;31;34631;-80
2022/02/20 06:43:03;;;;;;;15.75;4.68;;;;;;;4.28;57.76;100148.59;4489759;31;33819;-80
2022/02/20 06:45:32;;;;;;;8.38;4.57;;;;;;;3.94;59.17;100144.63;4494755;31;33899;-81
2022/02/20 06:48:00;;;;;;;11.77;5.10;;;;;;;4.27;58.48;100138.13;4480133;31;33544;-82
2022/02/20 06:50:28;;;;;;;9.50;4.87;;;;;;;4.45;58.08;100129.19;4492151;31;33732;-81
2022/02/20 06:52:57;;;;;;;9.32;4.65;;;;;;;4.52;58.06;100120.41;4474983;31;32022;-80
2022/02/20 06:55:26;;;;;;;9.43;4.85;;;;;;;4.51;58.28;100116.03;4494403;31;32328;-81
2022/02/20 06:57:56;;;;;;;7.37;4.55;;;;;;;4.78;58.26;100105.16;4487325;31;33818;-81
2022/02/20 07:00:24;;;;;;;7.90;4.25;;;;;;;4.47;59.86;100098.69;4486678;31;34525;-81
2022/02/20 07:02:52;;;;;;;9.65;3.17;;;;;;;4.53;61.78;100096.81;4482251;31;33491;-81
2022/02/20 07:05:26;;;;;;;7.18;2.83;;;;;;;4.88;62.04;100093.66;4464575;31;32976;-83
2022/02/20 07:07:54;;;;;;;2.72;1.55;;;;;;;5.14;65.01;100084.53;4473677;31;33556;-84
2022/02/20 07:10:22;;;;;;;4.15;1.37;;;;;;;5.63;65.18;100083.66;4479327;31;33700;-84
2022/02/20 07:12:50;;;;;;;4.07;1.37;;;;;;;5.52;66.47;100075.13;4486116;31;33038;-85
2022/02/20 07:15:18;;;;;;;4.32;2.10;;;;;;;5.89;65.75;100076.16;4491804;31;33798;-85
2022/02/20 07:17:47;;;;;;;1.62;1.00;;;;;;;6.04;65.16;100085.50;4477003;31;34008;-85
2022/02/20 07:20:14;;;;;;;4.37;1.50;;;;;;;6.06;65.15;100088.94;4494246;31;33623;-85
2022/02/20 07:22:43;;;;;;;9.18;1.62;;;;;;;6.34;64.37;100083.09;4471623;31;32805;-85
2022/02/20 07:25:10;;;;;;;3.58;1.20;;;;;;;6.95;62.47;100071.19;4500319;31;33425;-85
2022/02/20 07:27:43;;;;;;;3.78;0.80;;;;;;;7.41;61.13;100076.16;4494893;31;33264;-85
2022/02/20 07:30:13;;;;;;;4.53;1.23;;;;;;;7.60;60.60;100066.00;4466203;31;33800;-85
2022/02/20 07:32:42;;;;;;;2.70;1.30;;;;;;;7.75;60.25;100074.37;4493842;31;33507;-85
2022/02/20 07:35:10;;;;;;;1.87;0.98;;;;;;;7.80;59.90;100083.84;4489599;31;34603;-85
2022/02/20 07:37:38;;;;;;;8.32;1.50;;;;;;;7.65;60.80;100081.66;4467803;31;33361;-85
2022/02/20 07:40:15;;;;;;;5.32;1.25;;;;;;;7.85;59.88;100084.56;4482467;31;33753;-84
2022/02/20 07:43:36;;;;;;;3.30;1.42;;;;;;;8.38;58.65;100081.31;4484675;31;32886;-85
2022/02/20 07:46:03;;;;;;;5.45;1.50;;;;;;;8.64;57.66;100086.66;4479191;31;33221;-85
2022/02/20 07:48:31;;;;;;;5.45;1.55;;;;;;;8.18;58.60;100095.03;4488680;31;32614;-85
2022/02/20 07:51:01;;;;;;;5.78;1.67;;;;;;;8.55;57.90;100104.50;4494362;31;33305;-85
2022/02/20 07:53:29;;;;;;;4.87;1.75;;;;;;;8.95;56.58;100097.06;4478607;31;32674;-84
2022/02/20 07:55:58;;;;;;;5.47;2.20;;;;;;;8.94;56.72;100092.72;4493459;31;33908;-85
2022/02/20 07:58:26;;;;;;;4.37;1.70;;;;;;;8.84;56.90;100099.19;4485663;31;33531;-85
2022/02/20 08:00:54;;;;;;;4.03;1.30;;;;;;;8.58;57.46;100083.34;4481164;31;33609;-85
2022/02/20 08:03:24;;;;;;;6.80;2.35;;;;;;;8.96;56.73;100090.88;4479032;31;34284;-86
2022/02/20 08:05:52;;;;;;;5.68;2.28;;;;;;;9.26;56.08;100084.66;4478171;31;33804;-84
2022/02/20 08:08:20;;;;;;;4.12;1.60;;;;;;;9.22;55.69;100097.09;4478705;31;34126;-85
2022/02/20 08:10:48;;;;;;;4.47;1.80;;;;;;;9.45;55.54;100099.81;4479491;31;34220;-85
2022/02/20 08:13:16;;;;;;;6.97;2.12;;;;;;;9.40;55.20;100096.47;4493827;31;34579;-85
2022/02/20 08:15:44;;;;;;;5.12;1.87;;;;;;;9.54;54.83;100105.66;4480781;31;34004;-85
2022/02/20 08:18:12;;;;;;;6.93;1.80;;;;;;;9.29;54.92;100118.81;4476779;31;34342;-85
2022/02/20 08:20:40;;;;;;;7.93;1.83;;;;;;;9.57;54.18;100116.97;4490897;31;34604;-85
2022/02/20 08:23:08;;;;;;;7.12;2.12;;;;;;;9.67;53.93;100131.53;4493534;31;33491;-85
2022/02/20 08:25:37;;;;;;;2.70;1.48;;;;;;;9.91;52.99;100135.09;4479556;31;35230;-85
2022/02/20 08:28:05;;;;;;;4.93;1.55;;;;;;;9.87;53.03;100132.63;4479007;31;32616;-86
2022/02/20 08:30:34;;;;;;;2.55;1.12;;;;;;;9.49;53.77;100143.59;4465543;31;32703;-85
2022/02/20 08:33:03;;;;;;;3.67;1.33;;;;;;;9.66;53.24;100143.00;4490613;31;33919;-85
2022/02/20 08:35:32;;;;;;;4.43;1.65;;;;;;;9.48;53.85;100136.59;4478022;31;35043;-85
2022/02/20 08:38:01;;;;;;;4.55;1.65;;;;;;;9.74;53.75;100138.34;4477110;31;33947;-85
2022/02/20 08:40:29;;;;;;;3.42;1.10;;;;;;;9.74;53.99;100132.22;4485544;31;33859;-85
2022/02/20 08:42:57;;;;;;;6.32;1.60;;;;;;;9.93;53.27;100133.28;4477991;31;34738;-86
2022/02/20 08:45:25;;;;;;;4.97;1.80;;;;;;;10.21;52.45;100142.84;4492528;31;34300;-86
2022/02/20 08:47:54;;;;;;;2.40;1.15;;;;;;;9.89;52.51;100150.13;4491218;31;33897;-85
2022/02/20 08:50:22;;;;;;;4.60;1.33;;;;;;;9.98;52.73;100151.59;4471149;31;32607;-86
2022/02/20 08:52:51;;;;;;;2.95;1.35;;;;;;;10.08;52.12;100157.38;4475825;31;33929;-86
2022/02/20 08:55:20;;;;;;;3.58;1.80;;;;;;;9.87;53.40;100159.00;4466580;31;32893;-85
2022/02/20 08:57:48;;;;;;;5.03;1.25;;;;;;;10.32;52.10;100156.53;4481961;31;31890;-85
2022/02/20 09:00:16;;;;;;;3.53;1.12;;;;;;;10.24;52.14;100174.41;4490375;31;33816;-85
2022/02/20 09:02:44;;;;;;;1.95;1.15;;;;;;;10.22;52.12;100165.66;4487345;31;34706;-85
2022/02/20 09:05:13;;;;;;;2.55;1.30;;;;;;;10.08;52.01;100158.25;4477995;31;32269;-85
2022/02/20 09:07:40;;;;;;;3.00;1.50;;;;;;;10.34;51.22;100159.94;4476683;31;33207;-85
2022/02/20 09:10:09;;;;;;;3.78;1.50;;;;;;;10.47;50.43;100150.66;4490929;31;34442;-85
2022/02/20 09:12:38;;;;;;;5.05;1.83;;;;;;;10.58;50.02;100158.16;4478717;31;32798;-86
2022/02/20 09:15:09;;;;;;;4.00;1.20;;;;;;;10.42;50.67;100163.19;4461435;31;34016;-86
2022/02/20 09:17:38;;;;;;;1.73;1.30;;;;;;;10.43;50.15;100164.03;4479043;31;32548;-85
2022/02/20 09:20:06;;;;;;;3.80;1.30;;;;;;;10.63;50.45;100173.84;4472153;31;33926;-85
2022/02/20 09:22:34;;;;;;;2.55;1.25;;;;;;;10.67;49.88;100167.53;4478237;31;33860;-85
2022/02/20 09:25:02;;;;;;;3.50;1.05;;;;;;;10.62;49.75;100165.06;4493671;31;34272;-86
2022/02/20 09:27:30;;;;;;;4.50;1.60;;;;;;;11.10;48.42;100165.84;4493943;31;33232;-86
2022/02/20 09:29:58;;;;;;;3.17;1.35;;;;;;;11.18;48.88;100169.91;4474414;31;33533;-86
2022/02/20 09:32:27;;;;;;;7.75;1.58;;;;;;;11.14;48.97;100164.81;4478834;31;33907;-85
2022/02/20 09:34:54;;;;;;;5.80;1.75;;;;;;;11.01;49.43;100165.31;4481646;31;34337;-86
2022/02/20 09:37:23;;;;;;;1.60;0.98;;;;;;;10.96;49.88;100158.47;4479118;31;32629;-86
2022/02/20 09:39:51;;;;;;;2.20;0.80;;;;;;;11.02;50.42;100153.81;4477920;31;33052;-86
2022/02/20 09:42:19;;;;;;;3.00;1.45;;;;;;;11.19;49.15;100149.63;4492767;31;33687;-86
2022/02/20 09:44:46;;;;;;;1.87;0.90;;;;;;;11.27;49.10;100163.41;4491467;31;34245;-86
2022/02/20 09:47:15;;;;;;;2.28;0.90;;;;;;;11.18;49.32;100158.47;4474082;31;33560;-86
2022/02/20 09:49:45;;;;;;;2.35;1.35;;;;;;;11.12;49.50;100146.38;4464317;31;33131;-86
2022/02/20 09:52:13;;;;;;;3.22;1.23;;;;;;;11.90;48.77;100148.41;4483522;31;32575;-85
2022/02/20 09:54:41;;;;;;;4.87;0.85;;;;;;;11.69;48.35;100144.03;4481072;31;34450;-86
2022/02/20 09:57:08;;;;;;;1.95;1.10;;;;;;;11.42;49.28;100146.91;4473046;31;33486;-86
2022/02/20 09:59:36;;;;;;;2.53;0.80;;;;;;;11.62;49.16;100142.56;4475056;31;33867;-88
2022/02/20 10:02:05;;;;;;;2.28;0.80;;;;;;;11.99;48.15;100136.56;4486815;31;34069;-88
2022/02/20 10:04:52;;;;;;;3.80;0.95;;;;;;;11.79;48.54;100134.75;4485383;31;34345;-88
2022/02/20 10:07:28;;;;;;;1.37;0.60;;;;;;;11.69;48.67;100128.16;4476661;31;32345;-87
2022/02/20 10:09:57;;;;;;;1.65;0.60;;;;;;;11.70;49.00;100135.16;4492923;31;33344;-89
2022/02/20 10:12:28;;;;;;;1.12;0.62;;;;;;;11.70;48.54;100130.72;4489879;31;33723;-89
2022/02/20 10:14:56;;;;;;;1.37;0.77;;;;;;;11.60;48.91;100128.53;4482389;31;33461;-88
2022/02/20 10:17:28;;;;;;;2.87;0.70;;;;;;;11.55;49.77;100126.09;4472253;31;31919;-88
2022/02/20 10:20:07;;;;;;;3.20;0.90;;;;;;;11.69;49.63;100114.94;4492738;31;33969;-89
2022/02/20 10:22:40;;;;;;;0.65;0.45;;;;;;;11.39;50.26;100114.44;4481487;31;33649;-88
2022/02/20 10:25:30;;;;;;;1.87;0.62;;;;;;;11.39;50.14;100104.72;4479843;31;32567;-89
2022/02/20 10:28:05;;;;;;;1.23;0.80;;;;;;;11.37;50.27;100098.63;4463660;31;32597;-89
2022/02/20 10:30:35;;;;;;;1.45;0.85;;;;;;;11.68;49.43;100099.97;4471584;31;32943;-87
2022/02/20 10:33:11;;;;;;;0.85;0.52;;;;;;;11.72;49.30;100093.63;4479508;31;33635;-90
2022/02/20 10:35:45;;;;;;;1.00;0.62;;;;;;;12.10;48.26;100091.09;4466208;31;32807;-90
2022/02/20 10:38:18;;;;;;;0.70;0.52;;;;;;;11.93;48.63;100094.50;4471245;31;32547;-90
2022/02/20 10:40:50;;;;;;;1.20;0.70;;;;;;;11.33;50.18;100099.69;4471231;31;32711;-90
2022/02/20 10:43:24;;;;;;;2.93;0.73;;;;;;;11.95;49.09;100097.94;4477568;31;33511;-88
2022/02/20 10:46:09;;;;;;;1.37;0.77;;;;;;;11.34;50.85;100093.47;4492854;31;34795;-88
2022/02/20 10:48:42;;;;;;;2.53;0.88;;;;;;;11.47;50.67;100083.25;4484940;31;32270;-88
2022/02/20 10:51:13;;;;;;;1.48;0.60;;;;;;;12.03;49.17;100099.31;4477183;31;33550;-88
2022/02/20 10:53:41;;;;;;;0.75;0.62;;;;;;;12.29;48.06;100084.00;4480573;31;32638;-88
2022/02/20 10:56:09;;;;;;;3.20;0.88;;;;;;;11.82;49.60;100092.34;4475504;31;32310;-87
2022/02/20 10:58:43;;;;;;;1.62;1.05;;;;;;;12.14;48.42;100085.59;4470444;31;32655;-88
2022/02/20 11:01:25;;;;;;;1.73;1.33;;;;;;;12.32;47.68;100093.63;4478685;31;32740;-88
2022/02/20 11:04:10;;;;;;;0.80;0.75;;;;;;;11.48;50.22;100083.16;4479932;31;35677;-88
2022/02/20 11:06:38;;;;;;;1.85;0.77;;;;;;;11.63;49.69;100081.69;4466886;31;33191;-89
2022/02/20 11:09:09;;;;;;;1.42;1.00;;;;;;;11.51;50.25;100068.97;4484300;31;32674;-89
2022/02/20 11:11:42;;;;;;;1.48;0.93;;;;;;;11.53;50.48;100075.91;4474846;31;33007;-89
2022/02/20 11:14:18;;;;;;;2.47;0.80;;;;;;;11.73;50.01;100077.69;4493892;31;33952;-88
2022/02/20 11:16:50;;;;;;;4.50;1.00;;;;;;;12.16;48.64;100075.81;4494382;31;34536;-87
2022/02/20 11:19:21;;;;;;;1.58;0.60;;;;;;;12.24;48.31;100071.00;4449873;31;34048;-88
2022/02/20 11:21:59;;;;;;;1.12;0.88;;;;;;;12.19;48.21;100074.78;4475069;31;34173;-88
2022/02/20 11:24:29;;;;;;;0.98;0.90;;;;;;;12.51;47.53;100070.66;4490776;31;33995;-88
2022/02/20 11:27:00;;;;;;;1.55;1.10;;;;;;;12.15;48.36;100062.62;4484085;31;33974;-88
2022/02/20 11:29:30;;;;;;;0.93;0.90;;;;;;;12.15;47.64;100054.66;4481742;31;32342;-88
2022/02/20 11:31:58;;;;;;;1.42;0.95;;;;;;;12.49;46.89;100051.34;4475010;32;33360;-90
2022/02/20 11:34:26;;;;;;;1.80;1.23;;;;;;;11.86;48.82;100053.34;4483995;31;33213;-89
2022/02/20 11:36:56;;;;;;;2.47;0.90;;;;;;;12.11;48.24;100050.47;4460492;31;33021;-87
2022/02/20 11:39:25;;;;;;;3.47;1.12;;;;;;;11.82;49.09;100044.72;4463896;31;33501;-88
2022/02/20 11:42:15;;;;;;;1.45;1.20;;;;;;;12.59;47.77;100036.72;4476455;31;32893;-88